sensor_id;sensor_type;location;lat;lon;timestamp;P1;durP1;ratioP1;P2;durP2;ratioP2
78824;SDS011;68176;45.554;10.220;2023-05-23T00:12:26;5.68;;;4.05;;
78824;SDS011;68176;45.554;10.220;2023-05-23T00:15:04;4.43;;;3.70;;
78824;SDS011;68176;45.554;10.220;2023-05-23T00:17:32;4.53;;;3.97;;
78824;SDS011;68176;45.554;10.220;2023-05-23T00:20:00;3.20;;;2.50;;
78824;SDS011;68176;45.554;10.220;2023-05-23T00:26:08;6.03;;;3.83;;
78824;SDS011;68176;45.554;10.220;2023-05-23T00:31:45;5.65;;;4.78;;
78824;SDS011;68176;45.554;10.220;2023-05-23T00:34:31;7.47;;;4.28;;
78824;SDS011;68176;45.554;10.220;2023-05-23T00:40:05;4.53;;;4.07;;
78824;SDS011;68176;45.554;10.220;2023-05-23T00:42:30;5.20;;;3.85;;
78824;SDS011;68176;45.554;10.220;2023-05-23T00:45:10;4.93;;;3.90;;
78824;SDS011;68176;45.554;10.220;2023-05-23T00:47:47;6.53;;;4.65;;
78824;SDS011;68176;45.554;10.220;2023-05-23T00:57:07;4.78;;;3.97;;
78824;SDS011;68176;45.554;10.220;2023-05-23T01:02:58;6.25;;;4.00;;
78824;SDS011;68176;45.554;10.220;2023-05-23T01:05:39;5.55;;;4.05;;
78824;SDS011;68176;45.554;10.220;2023-05-23T01:08:44;6.38;;;5.00;;
78824;SDS011;68176;45.554;10.220;2023-05-23T01:21:18;5.30;;;4.32;;
78824;SDS011;68176;45.554;10.220;2023-05-23T01:27:56;4.72;;;3.97;;
78824;SDS011;68176;45.554;10.220;2023-05-23T01:30:29;5.78;;;4.90;;
78824;SDS011;68176;45.554;10.220;2023-05-23T01:33:12;4.30;;;3.58;;
78824;SDS011;68176;45.554;10.220;2023-05-23T01:36:12;7.95;;;4.75;;
78824;SDS011;68176;45.554;10.220;2023-05-23T01:38:51;5.55;;;4.05;;
78824;SDS011;68176;45.554;10.220;2023-05-23T01:41:32;5.13;;;3.90;;
78824;SDS011;68176;45.554;10.220;2023-05-23T01:44:29;5.13;;;4.40;;
78824;SDS011;68176;45.554;10.220;2023-05-23T01:47:48;6.85;;;5.40;;
78824;SDS011;68176;45.554;10.220;2023-05-23T01:50:56;5.35;;;4.32;;
78824;SDS011;68176;45.554;10.220;2023-05-23T01:54:16;4.72;;;3.65;;
78824;SDS011;68176;45.554;10.220;2023-05-23T02:00:19;6.90;;;3.83;;
78824;SDS011;68176;45.554;10.220;2023-05-23T02:02:45;5.15;;;4.60;;
78824;SDS011;68176;45.554;10.220;2023-05-23T02:06:01;4.27;;;3.53;;
78824;SDS011;68176;45.554;10.220;2023-05-23T02:08:57;8.82;;;4.47;;
78824;SDS011;68176;45.554;10.220;2023-05-23T02:17:56;5.57;;;4.60;;
78824;SDS011;68176;45.554;10.220;2023-05-23T02:21:18;4.57;;;3.87;;
78824;SDS011;68176;45.554;10.220;2023-05-23T02:26:39;6.10;;;5.13;;
78824;SDS011;68176;45.554;10.220;2023-05-23T02:29:05;3.80;;;3.45;;
78824;SDS011;68176;45.554;10.220;2023-05-23T02:32:20;4.77;;;3.93;;
78824;SDS011;68176;45.554;10.220;2023-05-23T02:35:04;4.90;;;4.38;;
78824;SDS011;68176;45.554;10.220;2023-05-23T02:40:52;6.40;;;3.53;;
78824;SDS011;68176;45.554;10.220;2023-05-23T02:43:33;5.25;;;3.75;;
78824;SDS011;68176;45.554;10.220;2023-05-23T02:46:32;4.93;;;4.13;;
78824;SDS011;68176;45.554;10.220;2023-05-23T02:49:17;4.15;;;3.25;;
78824;SDS011;68176;45.554;10.220;2023-05-23T02:54:44;3.87;;;3.37;;
78824;SDS011;68176;45.554;10.220;2023-05-23T03:00:51;5.20;;;3.53;;
78824;SDS011;68176;45.554;10.220;2023-05-23T03:03:40;5.33;;;4.20;;
78824;SDS011;68176;45.554;10.220;2023-05-23T03:06:08;6.40;;;3.60;;
78824;SDS011;68176;45.554;10.220;2023-05-23T03:08:54;4.35;;;3.83;;
78824;SDS011;68176;45.554;10.220;2023-05-23T03:11:55;4.75;;;3.40;;
78824;SDS011;68176;45.554;10.220;2023-05-23T03:17:05;3.90;;;2.70;;
78824;SDS011;68176;45.554;10.220;2023-05-23T03:23:07;5.00;;;4.10;;
78824;SDS011;68176;45.554;10.220;2023-05-23T03:25:47;6.65;;;3.80;;
78824;SDS011;68176;45.554;10.220;2023-05-23T03:29:00;4.55;;;3.97;;
78824;SDS011;68176;45.554;10.220;2023-05-23T03:31:31;5.57;;;4.35;;
78824;SDS011;68176;45.554;10.220;2023-05-23T03:33:57;4.30;;;3.90;;
78824;SDS011;68176;45.554;10.220;2023-05-23T03:36:27;5.60;;;4.35;;
78824;SDS011;68176;45.554;10.220;2023-05-23T03:39:10;5.20;;;4.03;;
78824;SDS011;68176;45.554;10.220;2023-05-23T03:41:51;5.93;;;3.90;;
78824;SDS011;68176;45.554;10.220;2023-05-23T03:44:23;4.43;;;3.97;;
78824;SDS011;68176;45.554;10.220;2023-05-23T03:46:48;4.90;;;3.55;;
78824;SDS011;68176;45.554;10.220;2023-05-23T03:49:32;3.93;;;3.57;;
78824;SDS011;68176;45.554;10.220;2023-05-23T03:52:33;5.30;;;4.40;;
78824;SDS011;68176;45.554;10.220;2023-05-23T03:55:06;6.60;;;5.50;;
78824;SDS011;68176;45.554;10.220;2023-05-23T03:57:35;5.20;;;4.07;;
78824;SDS011;68176;45.554;10.220;2023-05-23T04:03:15;5.28;;;4.45;;
78824;SDS011;68176;45.554;10.220;2023-05-23T04:09:20;5.22;;;3.75;;
78824;SDS011;68176;45.554;10.220;2023-05-23T04:17:58;5.90;;;4.78;;
78824;SDS011;68176;45.554;10.220;2023-05-23T04:20:24;5.20;;;2.00;;
78824;SDS011;68176;45.554;10.220;2023-05-23T04:22:52;4.90;;;4.43;;
78824;SDS011;68176;45.554;10.220;2023-05-23T04:25:22;5.43;;;4.67;;
78824;SDS011;68176;45.554;10.220;2023-05-23T04:27:52;7.78;;;5.25;;
78824;SDS011;68176;45.554;10.220;2023-05-23T04:30:25;5.13;;;4.45;;
78824;SDS011;68176;45.554;10.220;2023-05-23T04:33:01;5.68;;;4.90;;
78824;SDS011;68176;45.554;10.220;2023-05-23T04:37:58;4.40;;;3.60;;
78824;SDS011;68176;45.554;10.220;2023-05-23T04:40:25;4.90;;;3.65;;
78824;SDS011;68176;45.554;10.220;2023-05-23T04:42:55;5.53;;;4.60;;
78824;SDS011;68176;45.554;10.220;2023-05-23T04:45:25;5.32;;;4.50;;
78824;SDS011;68176;45.554;10.220;2023-05-23T04:48:00;5.13;;;4.60;;
78824;SDS011;68176;45.554;10.220;2023-05-23T04:50:29;3.50;;;2.50;;
78824;SDS011;68176;45.554;10.220;2023-05-23T04:53:02;5.30;;;4.00;;
78824;SDS011;68176;45.554;10.220;2023-05-23T04:55:28;4.10;;;3.70;;
78824;SDS011;68176;45.554;10.220;2023-05-23T04:58:02;4.65;;;4.00;;
78824;SDS011;68176;45.554;10.220;2023-05-23T05:00:31;4.50;;;3.50;;
78824;SDS011;68176;45.554;10.220;2023-05-23T05:03:04;4.30;;;3.77;;
78824;SDS011;68176;45.554;10.220;2023-05-23T05:05:30;3.10;;;2.60;;
78824;SDS011;68176;45.554;10.220;2023-05-23T05:07:58;6.50;;;5.15;;
78824;SDS011;68176;45.554;10.220;2023-05-23T05:10:31;5.05;;;4.47;;
78824;SDS011;68176;45.554;10.220;2023-05-23T05:12:58;4.47;;;3.92;;
78824;SDS011;68176;45.554;10.220;2023-05-23T05:15:28;6.65;;;4.25;;
78824;SDS011;68176;45.554;10.220;2023-05-23T05:17:58;5.13;;;4.13;;
78824;SDS011;68176;45.554;10.220;2023-05-23T05:20:31;6.05;;;4.65;;
78824;SDS011;68176;45.554;10.220;2023-05-23T05:23:08;5.60;;;3.70;;
78824;SDS011;68176;45.554;10.220;2023-05-23T05:25:43;5.40;;;3.95;;
78824;SDS011;68176;45.554;10.220;2023-05-23T05:28:11;4.57;;;3.67;;
78824;SDS011;68176;45.554;10.220;2023-05-23T05:30:42;4.90;;;3.75;;
78824;SDS011;68176;45.554;10.220;2023-05-23T05:35:35;3.20;;;2.40;;
78824;SDS011;68176;45.554;10.220;2023-05-23T05:38:15;3.70;;;2.30;;
78824;SDS011;68176;45.554;10.220;2023-05-23T05:40:40;3.93;;;3.37;;
78824;SDS011;68176;45.554;10.220;2023-05-23T05:48:32;6.22;;;4.75;;
78824;SDS011;68176;45.554;10.220;2023-05-23T05:50:57;3.10;;;2.80;;
78824;SDS011;68176;45.554;10.220;2023-05-23T05:53:26;7.63;;;5.00;;
78824;SDS011;68176;45.554;10.220;2023-05-23T05:55:56;9.30;;;5.55;;
78824;SDS011;68176;45.554;10.220;2023-05-23T05:58:26;8.20;;;5.65;;
78824;SDS011;68176;45.554;10.220;2023-05-23T06:00:56;12.02;;;5.65;;
78824;SDS011;68176;45.554;10.220;2023-05-23T06:03:26;10.13;;;5.35;;
78824;SDS011;68176;45.554;10.220;2023-05-23T06:05:56;8.45;;;5.00;;
78824;SDS011;68176;45.554;10.220;2023-05-23T06:08:26;14.85;;;6.45;;
78824;SDS011;68176;45.554;10.220;2023-05-23T06:10:56;12.63;;;6.35;;
78824;SDS011;68176;45.554;10.220;2023-05-23T06:13:26;16.20;;;5.82;;
78824;SDS011;68176;45.554;10.220;2023-05-23T06:15:56;10.18;;;5.45;;
78824;SDS011;68176;45.554;10.220;2023-05-23T06:18:26;9.13;;;4.95;;
78824;SDS011;68176;45.554;10.220;2023-05-23T06:20:56;11.98;;;7.03;;
78824;SDS011;68176;45.554;10.220;2023-05-23T06:23:26;12.85;;;6.57;;
78824;SDS011;68176;45.554;10.220;2023-05-23T06:25:57;15.98;;;6.25;;
78824;SDS011;68176;45.554;10.220;2023-05-23T06:28:26;11.02;;;5.88;;
78824;SDS011;68176;45.554;10.220;2023-05-23T06:30:56;9.40;;;5.55;;
78824;SDS011;68176;45.554;10.220;2023-05-23T06:33:26;10.93;;;6.47;;
78824;SDS011;68176;45.554;10.220;2023-05-23T06:35:56;9.68;;;6.28;;
78824;SDS011;68176;45.554;10.220;2023-05-23T06:38:28;9.63;;;5.93;;
78824;SDS011;68176;45.554;10.220;2023-05-23T06:40:56;10.85;;;6.03;;
78824;SDS011;68176;45.554;10.220;2023-05-23T06:43:26;11.65;;;6.18;;
78824;SDS011;68176;45.554;10.220;2023-05-23T06:45:56;9.27;;;6.22;;
78824;SDS011;68176;45.554;10.220;2023-05-23T06:48:26;10.43;;;5.90;;
78824;SDS011;68176;45.554;10.220;2023-05-23T06:50:56;10.95;;;6.10;;
78824;SDS011;68176;45.554;10.220;2023-05-23T06:53:26;9.73;;;6.00;;
78824;SDS011;68176;45.554;10.220;2023-05-23T06:55:56;8.52;;;5.82;;
78824;SDS011;68176;45.554;10.220;2023-05-23T06:58:26;9.45;;;7.13;;
78824;SDS011;68176;45.554;10.220;2023-05-23T07:00:56;8.20;;;5.85;;
78824;SDS011;68176;45.554;10.220;2023-05-23T07:03:26;9.70;;;5.90;;
78824;SDS011;68176;45.554;10.220;2023-05-23T07:06:03;9.27;;;5.70;;
78824;SDS011;68176;45.554;10.220;2023-05-23T07:08:34;3.00;;;2.20;;
78824;SDS011;68176;45.554;10.220;2023-05-23T07:11:11;13.00;;;5.57;;
78824;SDS011;68176;45.554;10.220;2023-05-23T07:13:46;16.10;;;5.97;;
78824;SDS011;68176;45.554;10.220;2023-05-23T09:55:31;24.10;;;15.48;;
78824;SDS011;68176;45.554;10.220;2023-05-23T09:57:57;10.60;;;9.50;;
78824;SDS011;68176;45.554;10.220;2023-05-23T10:00:25;17.55;;;15.32;;
78824;SDS011;68176;45.554;10.220;2023-05-23T10:03:10;22.25;;;18.83;;
78824;SDS011;68176;45.554;10.220;2023-05-23T10:06:22;23.05;;;15.75;;
78824;SDS011;68176;45.554;10.220;2023-05-23T10:09:06;22.73;;;14.98;;
78824;SDS011;68176;45.554;10.220;2023-05-23T10:21:00;18.55;;;14.18;;
78824;SDS011;68176;45.554;10.220;2023-05-23T10:23:44;18.15;;;15.25;;
78824;SDS011;68176;45.554;10.220;2023-05-23T10:26:48;24.60;;;14.00;;
78824;SDS011;68176;45.554;10.220;2023-05-23T10:29:14;11.00;;;8.15;;
78824;SDS011;68176;45.554;10.220;2023-05-23T10:31:57;17.25;;;13.90;;
78824;SDS011;68176;45.554;10.220;2023-05-23T10:34:28;16.13;;;12.18;;
78824;SDS011;68176;45.554;10.220;2023-05-23T10:37:05;22.95;;;16.50;;
78824;SDS011;68176;45.554;10.220;2023-05-23T10:42:11;23.08;;;14.25;;
78824;SDS011;68176;45.554;10.220;2023-05-23T10:47:38;21.23;;;12.30;;
78824;SDS011;68176;45.554;10.220;2023-05-23T10:50:04;10.20;;;8.00;;
78824;SDS011;68176;45.554;10.220;2023-05-23T10:52:38;18.17;;;12.40;;
78824;SDS011;68176;45.554;10.220;2023-05-23T10:55:14;14.47;;;11.40;;
78824;SDS011;68176;45.554;10.220;2023-05-23T10:57:42;15.23;;;13.00;;
78824;SDS011;68176;45.554;10.220;2023-05-23T11:00:17;11.95;;;8.65;;
78824;SDS011;68176;45.554;10.220;2023-05-23T11:02:53;18.73;;;10.73;;
78824;SDS011;68176;45.554;10.220;2023-05-23T11:05:23;14.90;;;10.43;;
78824;SDS011;68176;45.554;10.220;2023-05-23T11:13:25;19.80;;;11.73;;
78824;SDS011;68176;45.554;10.220;2023-05-23T11:16:29;16.50;;;12.73;;
78824;SDS011;68176;45.554;10.220;2023-05-23T11:21:53;11.98;;;10.70;;
78824;SDS011;68176;45.554;10.220;2023-05-23T11:27:31;12.38;;;11.07;;
78824;SDS011;68176;45.554;10.220;2023-05-23T11:30:09;16.50;;;9.83;;
78824;SDS011;68176;45.554;10.220;2023-05-23T11:32:39;17.93;;;10.03;;
78824;SDS011;68176;45.554;10.220;2023-05-23T11:35:08;11.33;;;8.40;;
78824;SDS011;68176;45.554;10.220;2023-05-23T11:37:38;6.10;;;4.70;;
78824;SDS011;68176;45.554;10.220;2023-05-23T11:43:15;12.75;;;9.57;;
78824;SDS011;68176;45.554;10.220;2023-05-23T12:22:12;13.13;;;7.80;;
78824;SDS011;68176;45.554;10.220;2023-05-23T12:27:46;10.35;;;6.10;;
78824;SDS011;68176;45.554;10.220;2023-05-23T12:50:45;9.77;;;6.03;;
78824;SDS011;68176;45.554;10.220;2023-05-23T12:54:11;17.58;;;6.35;;
78824;SDS011;68176;45.554;10.220;2023-05-23T12:59:41;12.37;;;4.17;;
78824;SDS011;68176;45.554;10.220;2023-05-23T16:22:50;4.57;;;3.63;;
